Time;durP1;ratioP1;P1;durP2;ratioP2;P2;SDS_P1;SDS_P2;PMS_P1;PMS_P2;Temp;Humidity;BMP_temperature;BMP_pressure;BME280_temperature;BME280_humidity;BME280_pressure;Samples;Min_cycle;Max_cycle;Signal;HPM_P1;HPM_P2
2022/12/21 00:01:15;;;;;;;96.72;42.22;;;;;;;16.22;64.83;101077.56;5013222;28;20568;-73
2022/12/21 00:03:41;;;;;;;92.72;40.97;;;;;;;15.89;65.71;101077.75;5010983;28;20046;-73
2022/12/21 00:06:07;;;;;;;97.80;41.08;;;;;;;16.84;63.56;101085.19;5013340;28;20590;-74
2022/12/21 00:08:37;;;;;;;95.78;40.30;;;;;;;16.76;63.34;101070.19;5014035;28;20041;-73
2022/12/21 00:11:04;;;;;;;89.88;39.53;;;;;;;16.80;63.19;101075.91;5012867;28;20087;-74
2022/12/21 00:13:31;;;;;;;87.57;39.75;;;;;;;16.72;63.65;101076.41;5012949;28;20034;-73
2022/12/21 00:16:00;;;;;;;79.88;36.03;;;;;;;16.37;64.51;101080.41;5013006;28;20149;-73
2022/12/21 00:18:26;;;;;;;84.07;38.78;;;;;;;16.80;62.80;101074.03;5013536;28;20398;-74
2022/12/21 00:21:02;;;;;;;78.28;38.88;;;;;;;16.83;62.77;101072.66;5013795;28;20038;-73
2022/12/21 00:23:28;;;;;;;78.32;40.17;;;;;;;16.76;62.71;101078.34;5013064;28;20049;-74
2022/12/21 00:25:54;;;;;;;82.45;37.63;;;;;;;16.72;63.01;101076.41;5012963;28;20450;-74
2022/12/21 00:28:20;;;;;;;83.28;39.15;;;;;;;16.83;62.30;101084.34;5012220;28;20066;-73
2022/12/21 00:30:45;;;;;;;77.32;38.17;;;;;;;16.85;62.00;101079.47;5012089;28;20096;-74
2022/12/21 00:33:11;;;;;;;81.70;37.10;;;;;;;16.50;63.36;101076.50;5012578;28;20703;-74
2022/12/21 00:35:36;;;;;;;80.72;34.58;;;;;;;16.58;62.69;101074.13;5012832;28;20088;-75
2022/12/21 00:38:01;;;;;;;82.82;38.40;;;;;;;16.77;62.70;101076.41;5011869;28;20048;-73
2022/12/21 00:40:27;;;;;;;80.65;37.97;;;;;;;16.33;63.53;101087.41;4995006;28;20124;-73
2022/12/21 00:42:53;;;;;;;84.07;38.25;;;;;;;16.69;62.29;101091.28;4979009;28;20065;-73
2022/12/21 00:45:18;;;;;;;87.82;38.13;;;;;;;16.35;63.60;101089.91;5012126;28;20088;-73
2022/12/21 00:47:43;;;;;;;92.97;39.22;;;;;;;16.58;62.66;101086.88;5012919;28;20048;-75
2022/12/21 00:50:09;;;;;;;81.22;36.72;;;;;;;16.17;63.04;101092.97;5012427;28;20502;-73
2022/12/21 00:52:34;;;;;;;92.05;38.63;;;;;;;16.22;64.27;101093.81;5012546;28;20133;-73
2022/12/21 00:55:00;;;;;;;91.43;38.70;;;;;;;15.63;66.51;101102.91;5025372;28;20125;-73
2022/12/21 00:57:27;;;;;;;82.05;37.60;;;;;;;15.72;65.78;101098.69;5014319;28;20088;-73
2022/12/21 00:59:52;;;;;;;87.00;37.53;;;;;;;16.21;64.03;101099.50;5013326;28;20482;-73
2022/12/21 01:02:18;;;;;;;80.10;36.72;;;;;;;16.14;64.31;101096.16;5012923;28;20058;-73
2022/12/21 01:04:43;;;;;;;85.05;37.85;;;;;;;16.02;64.15;101100.94;5013343;28;20136;-74
2022/12/21 01:07:09;;;;;;;85.53;37.53;;;;;;;16.40;63.31;101112.44;5012653;28;20433;-74
2022/12/21 01:09:34;;;;;;;89.32;38.80;;;;;;;16.16;63.71;101113.00;5012512;28;20549;-73
2022/12/21 01:11:59;;;;;;;96.95;37.97;;;;;;;15.77;64.93;101115.00;5012976;28;20030;-71
2022/12/21 01:14:25;;;;;;;89.32;36.85;;;;;;;16.43;62.93;101114.63;5013654;28;20109;-73
2022/12/21 01:16:50;;;;;;;87.47;35.30;;;;;;;16.27;63.03;101115.59;5012207;28;20042;-73
2022/12/21 01:19:15;;;;;;;82.35;35.45;;;;;;;15.57;65.15;101120.97;5012632;28;20030;-74
2022/12/21 01:21:41;;;;;;;87.45;37.03;;;;;;;16.14;63.52;101118.69;5013132;28;20091;-73
2022/12/21 01:24:10;;;;;;;79.07;34.65;;;;;;;16.08;63.55;101119.69;5012542;28;20505;-74
2022/12/21 01:26:36;;;;;;;81.85;35.40;;;;;;;16.42;62.48;101118.44;4995336;28;20050;-73
2022/12/21 01:29:01;;;;;;;94.38;37.40;;;;;;;16.11;63.12;101115.66;5012039;28;20129;-73
2022/12/21 01:31:27;;;;;;;81.57;37.33;;;;;;;16.24;62.69;101116.09;5011228;28;20050;-73
2022/12/21 01:33:52;;;;;;;92.63;35.95;;;;;;;15.76;63.72;101124.22;5010041;28;20042;-73
2022/12/21 01:36:18;;;;;;;85.18;34.60;;;;;;;15.89;64.09;101120.28;5011534;28;20038;-72
2022/12/21 01:38:45;;;;;;;85.05;35.92;;;;;;;15.47;65.27;101122.72;5012371;28;20022;-73
2022/12/21 01:41:16;;;;;;;91.38;35.30;;;;;;;15.45;65.36;101114.84;5011599;28;20052;-73
2022/12/21 01:43:48;;;;;;;88.45;37.42;;;;;;;15.26;65.92;101110.78;4996072;28;20045;-73
2022/12/21 01:46:19;;;;;;;94.95;36.80;;;;;;;15.64;64.71;101110.81;5011527;28;20115;-73
2022/12/21 01:48:52;;;;;;;92.65;37.15;;;;;;;15.70;64.23;101111.69;5010618;28;20077;-74
2022/12/21 01:51:18;;;;;;;93.15;35.65;;;;;;;15.79;63.23;101112.84;5014720;28;20053;-74
2022/12/21 01:53:49;;;;;;;75.70;32.38;;;;;;;15.92;63.06;101111.66;5015954;28;20030;-74
2022/12/21 01:56:19;;;;;;;81.75;34.13;;;;;;;15.90;62.62;101114.59;5015492;28;20034;-73
2022/12/21 01:58:45;;;;;;;92.03;36.45;;;;;;;15.85;62.63;101109.16;5015860;28;20030;-73
2022/12/21 02:01:10;;;;;;;188.32;35.97;;;;;;;15.71;62.15;101113.31;5015622;28;20409;-73
2022/12/21 02:03:41;;;;;;;138.57;31.52;;;;;;;15.61;61.85;101116.72;5015918;28;20137;-73
2022/12/21 02:06:17;;;;;;;215.60;33.83;;;;;;;15.51;62.23;101126.56;5015565;28;20045;-72
2022/12/21 02:08:43;;;;;;;315.70;29.10;;;;;;;15.35;62.32;101133.63;5015505;28;20033;-74
2022/12/21 02:11:10;;;;;;;161.60;30.65;;;;;;;15.28;62.01;101140.31;5015292;28;20460;-74
2022/12/21 02:13:35;;;;;;;124.07;28.98;;;;;;;15.21;62.79;101131.56;5015080;28;20132;-73
2022/12/21 02:16:25;;;;;;;80.35;25.27;;;;;;;15.14;61.39;101126.28;4997237;28;20117;-73
2022/12/21 02:19:02;;;;;;;256.67;24.42;;;;;;;15.00;61.88;101121.50;5014859;28;20080;-73
2022/12/21 02:21:49;;;;;;;50.05;23.55;;;;;;;14.92;62.20;101128.13;5015248;28;20047;-73
2022/12/21 02:24:50;;;;;;;50.28;21.58;;;;;;;14.80;62.75;101122.78;5015607;28;20683;-73
2022/12/21 02:27:21;;;;;;;166.88;22.60;;;;;;;14.77;61.95;101130.59;4915531;29;20070;-73
2022/12/21 02:30:04;;;;;;;48.08;20.90;;;;;;;14.80;61.98;101125.50;4932046;29;20402;-73
2022/12/21 02:32:45;;;;;;;41.47;21.85;;;;;;;14.79;62.47;101117.63;4916371;29;20052;-73
2022/12/21 02:35:28;;;;;;;42.67;20.85;;;;;;;14.79;62.46;101117.63;4916770;29;20497;-73
2022/12/21 02:38:20;;;;;;;61.65;24.02;;;;;;;14.85;61.87;101114.78;4916516;29;20123;-73
2022/12/21 02:41:09;;;;;;;83.90;22.77;;;;;;;14.80;62.87;101103.84;4916440;29;20055;-73
2022/12/21 02:46:42;;;;;;;62.47;22.92;;;;;;;15.07;62.40;101097.78;4916531;29;20100;-73
2022/12/21 02:49:15;;;;;;;;;;;;;;;14.92;63.72;101101.88;4917203;29;20048;-73
2022/12/21 02:51:49;;;;;;;53.75;22.00;;;;;;;15.02;63.35;101105.81;4901176;29;19919;-73
2022/12/21 02:54:16;;;;;;;68.90;23.05;;;;;;;14.85;64.17;101109.34;4922797;29;20054;-73
2022/12/21 02:56:41;;;;;;;59.28;23.17;;;;;;;14.87;64.52;101107.22;4923608;29;20128;-74
2022/12/21 02:59:11;;;;;;;68.20;26.63;;;;;;;15.33;62.97;101106.00;4915925;29;20489;-74
2022/12/21 03:02:16;;;;;;;61.20;24.53;;;;;;;15.28;63.37;101105.94;4915087;29;20532;-74
2022/12/21 03:05:15;;;;;;;58.10;21.35;;;;;;;15.23;63.58;101107.75;5000761;28;20498;-73
2022/12/21 03:07:52;;;;;;;67.00;23.38;;;;;;;15.20;63.73;101106.34;4999452;28;20037;-73
2022/12/21 03:10:44;;;;;;;57.53;22.30;;;;;;;15.18;63.74;101094.97;5015410;28;20084;-74
2022/12/21 03:13:22;;;;;;;53.42;21.13;;;;;;;15.13;63.47;101115.72;5010121;28;20068;-74
2022/12/21 03:16:25;;;;;;;52.53;18.45;;;;;;;15.27;62.25;101100.78;4999940;28;20046;-73
2022/12/21 03:19:02;;;;;;;44.55;16.70;;;;;;;15.18;61.63;101094.13;5014415;28;20045;-73
2022/12/21 03:21:37;;;;;;;34.80;15.90;;;;;;;15.15;61.63;101092.75;5014395;28;20066;-73
2022/12/21 03:24:41;;;;;;;29.48;14.93;;;;;;;15.12;61.81;101095.13;5014079;28;20018;-72
2022/12/21 03:27:12;;;;;;;31.05;14.98;;;;;;;15.07;62.01;101086.94;4934726;29;20060;-74
2022/12/21 03:29:43;;;;;;;39.67;15.05;;;;;;;14.81;62.53;101093.84;4935471;29;20166;-73
2022/12/21 03:32:12;;;;;;;;;;;;;;;14.98;62.25;101091.16;4935125;29;20119;-73
2022/12/21 03:34:40;;;;;;;34.08;13.48;;;;;;;14.98;62.30;101092.78;4934663;29;19962;-73
2022/12/21 03:37:11;;;;;;;41.78;13.75;;;;;;;15.03;62.27;101093.91;4933898;29;20404;-73
2022/12/21 03:39:41;;;;;;;35.65;12.98;;;;;;;15.06;61.84;101098.81;4933993;29;20048;-73
2022/12/21 03:42:18;;;;;;;28.63;14.80;;;;;;;15.12;61.93;101095.13;4934119;29;20047;-73
2022/12/21 03:44:50;;;;;;;31.55;16.02;;;;;;;15.16;62.13;101090.84;4934603;29;20048;-73
2022/12/21 03:47:19;;;;;;;34.30;16.25;;;;;;;15.11;62.12;101096.22;4933509;29;20195;-72
2022/12/21 03:49:53;;;;;;;42.38;13.73;;;;;;;15.14;61.97;101085.69;4933902;29;20107;-74
2022/12/21 03:52:22;;;;;;;31.65;14.75;;;;;;;15.13;61.86;101086.78;4933627;29;20123;-73
2022/12/21 03:54:59;;;;;;;40.72;15.95;;;;;;;15.16;61.95;101082.72;4944668;29;20047;-73
2022/12/21 03:57:26;;;;;;;37.15;17.77;;;;;;;15.19;62.01;101074.13;4935064;29;20566;-73
2022/12/21 03:59:58;;;;;;;36.38;15.63;;;;;;;15.17;61.84;101082.50;4943582;29;20032;-72
2022/12/21 04:02:45;;;;;;;50.35;18.92;;;;;;;15.16;61.85;101075.44;4938829;28;20091;-73
2022/12/21 04:05:17;;;;;;;35.80;15.77;;;;;;;15.18;61.89;101078.72;5009466;28;20665;-74
2022/12/21 04:07:45;;;;;;;44.13;18.80;;;;;;;15.15;61.94;101073.81;4993667;28;20103;-73
2022/12/21 04:10:15;;;;;;;48.60;19.48;;;;;;;15.13;61.89;101072.41;5001470;28;20040;-74
2022/12/21 04:12:40;;;;;;;47.05;16.90;;;;;;;15.08;62.05;101069.63;5012999;28;20034;-73
2022/12/21 04:15:13;;;;;;;49.30;18.55;;;;;;;15.08;61.88;101072.31;5013239;28;20029;-73
2022/12/21 04:17:40;;;;;;;50.88;20.88;;;;;;;15.10;61.98;101078.31;4997592;28;20032;-74
2022/12/21 04:20:10;;;;;;;52.28;19.63;;;;;;;14.87;62.83;101087.47;5013380;28;20056;-73
2022/12/21 04:28:15;;;;;;;62.03;22.08;;;;;;;15.21;61.80;101080.13;5013134;28;20095;-74
2022/12/21 04:30:43;;;;;;;62.22;21.15;;;;;;;15.11;61.99;101079.97;5013486;28;20125;-73
2022/12/21 04:33:11;;;;;;;64.68;23.73;;;;;;;15.08;61.93;101085.84;5013184;28;20110;-73
2022/12/21 04:37:30;;;;;;;59.40;23.02;;;;;;;15.15;62.07;101063.00;5013542;28;20018;-73
2022/12/21 04:38:24;;;;;;;54.60;21.48;;;;;;;15.17;61.79;101071.69;5013044;28;20045;-74
2022/12/21 04:40:53;;;;;;;78.60;22.98;;;;;;;15.09;61.94;101066.69;5013337;28;20037;-73
2022/12/21 04:43:19;;;;;;;64.10;25.27;;;;;;;15.11;62.03;101069.13;5011044;28;20085;-73
2022/12/21 04:45:44;;;;;;;61.42;24.52;;;;;;;15.02;62.47;101066.03;5013803;28;20065;-74
2022/12/21 04:48:10;;;;;;;56.72;23.75;;;;;;;15.11;62.27;101067.25;5012966;28;20181;-74
2022/12/21 04:50:38;;;;;;;70.38;25.85;;;;;;;15.26;61.82;101064.75;5013550;28;20061;-74
2022/12/21 04:53:03;;;;;;;65.95;26.08;;;;;;;15.13;62.08;101067.00;5012820;28;20057;-73
2022/12/21 04:55:28;;;;;;;68.55;24.50;;;;;;;15.05;62.17;101062.00;5027104;28;20061;-73
2022/12/21 04:57:54;;;;;;;70.90;28.52;;;;;;;14.94;63.25;101061.88;5012725;28;20663;-74
2022/12/21 05:00:19;;;;;;;71.60;26.98;;;;;;;14.82;63.35;101063.00;5012623;28;20526;-73
2022/12/21 05:02:44;;;;;;;76.82;27.63;;;;;;;15.15;62.66;101056.75;5011163;28;20030;-74
2022/12/21 05:05:10;;;;;;;71.57;28.05;;;;;;;15.16;62.60;101064.59;5011628;28;20129;-73
2022/12/21 05:07:35;;;;;;;72.38;29.05;;;;;;;14.34;65.05;101066.31;5012578;28;20538;-74
2022/12/21 05:10:03;;;;;;;85.93;29.77;;;;;;;14.35;65.73;101075.25;5011846;28;20042;-72
2022/12/21 05:12:28;;;;;;;81.22;29.75;;;;;;;14.91;63.60;101075.06;5011235;28;20054;-73
2022/12/21 05:14:54;;;;;;;84.68;30.83;;;;;;;14.42;65.42;101074.03;5012512;28;20075;-74
2022/12/21 05:17:19;;;;;;;84.82;31.73;;;;;;;14.99;63.45;101061.13;5013136;28;20117;-73
2022/12/21 05:19:46;;;;;;;78.88;30.73;;;;;;;15.18;62.39;101062.47;5012482;28;20124;-73
2022/12/21 05:22:16;;;;;;;85.65;30.52;;;;;;;14.83;63.34;101064.66;5012547;28;20058;-73
2022/12/21 05:24:43;;;;;;;82.00;31.98;;;;;;;15.10;62.96;101065.59;5013251;28;20038;-73
2022/12/21 05:27:09;;;;;;;83.93;28.90;;;;;;;15.18;62.36;101065.19;5016720;28;20030;-73
2022/12/21 05:29:34;;;;;;;78.72;27.73;;;;;;;15.21;62.13;101064.69;5017206;28;20032;-73
2022/12/21 05:31:59;;;;;;;70.60;28.15;;;;;;;14.96;63.24;101061.59;5016239;28;20120;-74
2022/12/21 05:34:25;;;;;;;93.78;32.75;;;;;;;15.10;62.56;101057.47;5016389;28;20052;-74
2022/12/21 05:36:50;;;;;;;86.90;30.98;;;;;;;15.15;62.38;101054.88;5016420;28;20072;-73
2022/12/21 05:39:15;;;;;;;74.75;28.77;;;;;;;15.00;62.34;101054.63;5016933;28;20029;-73
2022/12/21 05:41:41;;;;;;;81.47;29.75;;;;;;;14.84;62.89;101056.28;5017065;28;20038;-73
2022/12/21 05:44:08;;;;;;;73.90;30.63;;;;;;;14.98;62.79;101051.34;5016121;28;20584;-74
2022/12/21 05:46:34;;;;;;;81.75;33.22;;;;;;;14.95;62.59;101057.28;5016311;28;20117;-74
2022/12/21 05:48:59;;;;;;;75.03;30.35;;;;;;;14.99;62.58;101058.41;5015995;28;20145;-73
2022/12/21 05:51:24;;;;;;;83.65;29.67;;;;;;;14.84;63.40;101053.59;5014985;28;20041;-73
2022/12/21 05:53:50;;;;;;;84.72;32.25;;;;;;;14.82;63.47;101053.00;5016757;28;20472;-74
2022/12/21 05:56:15;;;;;;;94.22;31.88;;;;;;;14.87;63.37;101041.47;5016652;28;20124;-74
2022/12/21 05:58:41;;;;;;;87.32;33.05;;;;;;;15.04;62.34;101044.94;5016506;28;20466;-73
2022/12/21 06:01:08;;;;;;;102.60;32.22;;;;;;;14.93;62.63;101054.00;5014034;28;20117;-74
2022/12/21 06:03:33;;;;;;;86.30;31.17;;;;;;;14.35;64.58;101054.41;5014670;28;20041;-74
2022/12/21 06:06:05;;;;;;;83.60;31.52;;;;;;;14.85;63.04;101044.41;5015995;28;20117;-73
2022/12/21 06:08:31;;;;;;;140.90;31.27;;;;;;;14.84;62.31;101050.06;5016773;28;20057;-72
2022/12/21 06:11:01;;;;;;;88.68;33.30;;;;;;;14.83;62.66;101051.13;5015917;28;20041;-74
2022/12/21 06:13:27;;;;;;;97.90;31.98;;;;;;;14.87;62.47;101046.88;5015973;28;20061;-73
2022/12/21 06:15:52;;;;;;;114.38;32.25;;;;;;;14.77;62.41;101044.00;5015901;28;20042;-73
2022/12/21 06:18:18;;;;;;;95.90;30.45;;;;;;;14.82;62.24;101054.91;4998326;28;20103;-74
2022/12/21 06:20:50;;;;;;;101.38;32.53;;;;;;;14.78;62.63;101051.88;5016031;28;20113;-74
2022/12/21 06:23:15;;;;;;;118.40;30.70;;;;;;;14.84;62.36;101055.47;5015916;28;20133;-74
2022/12/21 06:25:41;;;;;;;141.52;31.33;;;;;;;14.72;62.72;101050.16;5015749;28;20124;-74
2022/12/21 06:28:07;;;;;;;113.07;32.28;;;;;;;14.79;62.56;101050.00;5014906;28;20121;-73
2022/12/21 06:30:32;;;;;;;147.60;34.45;;;;;;;14.81;62.33;101053.28;5014746;28;20430;-74
2022/12/21 06:32:58;;;;;;;297.38;35.30;;;;;;;14.81;62.39;101040.56;5014615;28;20025;-72
2022/12/21 06:35:23;;;;;;;373.88;37.83;;;;;;;14.69;62.76;101050.66;5014515;28;20070;-73
2022/12/21 06:37:48;;;;;;;174.60;34.63;;;;;;;14.35;64.94;101057.13;5014744;28;20030;-73
2022/12/21 06:40:14;;;;;;;303.95;37.03;;;;;;;14.66;63.19;101050.34;5013282;28;20107;-73
2022/12/21 06:42:39;;;;;;;171.52;34.28;;;;;;;14.78;63.18;101046.47;5011878;28;20057;-73
2022/12/21 06:45:06;;;;;;;96.45;34.17;;;;;;;14.87;62.44;101047.69;5013803;28;20121;-74
2022/12/21 06:47:31;;;;;;;117.18;33.95;;;;;;;14.53;64.23;101048.78;5015248;28;20037;-73
2022/12/21 06:49:56;;;;;;;114.70;33.70;;;;;;;14.66;63.45;101042.22;5013768;28;20044;-73
2022/12/21 06:52:22;;;;;;;99.85;37.05;;;;;;;14.80;63.00;101036.22;5014739;28;20451;-74
2022/12/21 06:54:47;;;;;;;294.17;38.15;;;;;;;14.87;62.42;101052.28;5018028;28;20153;-73
2022/12/21 06:57:13;;;;;;;126.57;34.10;;;;;;;14.67;63.06;101055.50;5012663;28;20056;-74
2022/12/21 06:59:38;;;;;;;211.95;34.08;;;;;;;14.74;62.44;101041.81;4997279;28;20045;-74
2022/12/21 07:02:03;;;;;;;278.95;37.20;;;;;;;14.98;62.06;101049.47;5014093;28;20558;-74
2022/12/21 07:04:29;;;;;;;133.30;33.40;;;;;;;14.91;62.43;101061.53;5012795;28;20647;-74
2022/12/21 07:06:54;;;;;;;207.98;35.22;;;;;;;14.90;62.54;101068.84;5012782;28;20128;-74
2022/12/21 07:09:20;;;;;;;134.38;34.38;;;;;;;14.96;62.27;101067.84;5014579;28;20034;-74
2022/12/21 07:11:46;;;;;;;210.35;37.80;;;;;;;14.96;62.28;101069.72;4996763;28;20133;-77
2022/12/21 07:14:12;;;;;;;163.18;34.58;;;;;;;14.34;64.51;101074.41;5014517;28;20045;-74
2022/12/21 07:16:37;;;;;;;154.20;36.78;;;;;;;14.77;63.54;101074.59;5012437;28;20398;-73
2022/12/21 07:19:02;;;;;;;141.77;36.65;;;;;;;14.74;63.50;101069.66;5012597;28;20130;-74
2022/12/21 07:21:28;;;;;;;120.00;32.97;;;;;;;15.03;62.55;101069.56;5014171;28;20034;-73
2022/12/21 07:23:54;;;;;;;104.10;35.00;;;;;;;14.38;64.94;101069.34;5014323;28;20022;-73
2022/12/21 07:26:21;;;;;;;126.13;35.22;;;;;;;14.71;63.54;101072.88;5012185;28;20069;-75
2022/12/21 07:28:47;;;;;;;94.35;34.63;;;;;;;14.96;62.84;101067.84;5013216;28;20132;-74
2022/12/21 07:31:19;;;;;;;132.32;34.95;;;;;;;15.01;62.54;101077.09;5013418;28;20064;-74
2022/12/21 07:33:45;;;;;;;98.40;35.10;;;;;;;15.09;62.10;101076.69;5013879;28;20038;-75
2022/12/21 07:36:11;;;;;;;87.78;33.50;;;;;;;14.99;62.08;101069.25;5014077;28;20028;-73
2022/12/21 07:38:38;;;;;;;89.50;34.25;;;;;;;14.96;62.45;101067.84;5014004;28;20640;-73
2022/12/21 07:41:06;;;;;;;105.55;34.53;;;;;;;15.08;61.82;101072.31;5010210;28;20117;-75
2022/12/21 07:43:31;;;;;;;88.45;33.85;;;;;;;15.01;61.91;101079.81;5009004;28;20467;-73
2022/12/21 07:45:57;;;;;;;80.10;32.65;;;;;;;14.97;62.09;101079.50;4999868;28;20057;-74
2022/12/21 07:48:22;;;;;;;94.13;32.20;;;;;;;14.43;63.77;101072.09;5010839;28;20042;-75
2022/12/21 07:50:49;;;;;;;102.70;34.03;;;;;;;14.76;62.93;101072.94;5009220;28;20052;-74
2022/12/21 07:53:15;;;;;;;91.72;35.15;;;;;;;14.64;63.67;101079.53;5012728;28;20065;-72
2022/12/21 07:55:40;;;;;;;97.55;35.42;;;;;;;14.62;64.10;101081.66;5012079;28;20022;-75
2022/12/21 07:58:06;;;;;;;101.82;35.55;;;;;;;14.43;64.84;101081.06;5009629;28;20034;-74
2022/12/21 08:00:31;;;;;;;101.53;37.58;;;;;;;14.37;65.81;101086.63;5012026;28;20540;-72
2022/12/21 08:02:57;;;;;;;102.90;37.13;;;;;;;14.52;64.66;101082.31;5011206;28;20029;-73
2022/12/21 08:05:22;;;;;;;96.13;37.60;;;;;;;14.74;64.44;101085.09;5013056;28;20466;-73
2022/12/21 08:07:48;;;;;;;88.55;32.78;;;;;;;14.16;65.55;101084.56;5013348;28;20038;-74
2022/12/21 08:10:14;;;;;;;113.22;35.78;;;;;;;14.41;65.71;101094.00;5011295;28;20045;-73
2022/12/21 08:12:40;;;;;;;110.60;36.65;;;;;;;14.10;67.09;101098.00;5011453;28;20042;-73
2022/12/21 08:15:06;;;;;;;109.60;36.83;;;;;;;13.73;68.73;101109.41;5008907;28;20125;-73
2022/12/21 08:17:32;;;;;;;136.07;40.53;;;;;;;14.44;66.74;101109.75;5011856;28;20420;-74
2022/12/21 08:19:57;;;;;;;112.00;38.92;;;;;;;13.55;69.93;101114.97;5011790;28;20042;-73
2022/12/21 08:22:23;;;;;;;136.20;40.92;;;;;;;13.61;69.25;101106.75;5011360;28;20076;-73
2022/12/21 08:24:49;;;;;;;120.80;38.13;;;;;;;13.74;69.21;101105.66;4992480;28;20371;-73
2022/12/21 08:27:14;;;;;;;144.63;43.92;;;;;;;14.62;66.49;101104.09;5012442;28;20053;-74
2022/12/21 08:29:40;;;;;;;140.57;42.80;;;;;;;14.51;66.37;101093.34;5013164;28;20537;-74
2022/12/21 08:32:06;;;;;;;139.55;40.10;;;;;;;14.95;65.16;101103.28;5012608;28;20037;-74
2022/12/21 08:34:31;;;;;;;133.25;39.05;;;;;;;15.05;64.86;101103.44;4995138;28;20037;-74
2022/12/21 08:36:56;;;;;;;133.18;39.85;;;;;;;15.55;63.04;101100.63;5011994;28;20102;-74
2022/12/21 08:39:22;;;;;;;149.82;44.67;;;;;;;15.14;63.55;101103.81;5012119;28;20118;-74
2022/12/21 08:41:47;;;;;;;142.35;41.72;;;;;;;15.59;63.14;101099.88;5012693;28;20122;-74
2022/12/21 08:44:12;;;;;;;144.80;43.00;;;;;;;15.52;63.14;101101.16;4994692;28;20181;-74
2022/12/21 08:46:38;;;;;;;131.93;41.35;;;;;;;14.99;64.11;101090.91;5013080;28;20042;-74
2022/12/21 08:49:04;;;;;;;131.68;38.33;;;;;;;15.18;64.24;101094.97;4994689;28;20510;-73
2022/12/21 08:51:29;;;;;;;114.18;34.45;;;;;;;15.33;63.50;101091.66;5012635;28;20033;-74
2022/12/21 08:53:54;;;;;;;110.82;36.17;;;;;;;15.39;63.72;101083.31;5012853;28;20101;-70
2022/12/21 08:56:20;;;;;;;100.65;34.38;;;;;;;15.71;62.71;101091.63;5013226;28;20038;-73
2022/12/21 08:58:46;;;;;;;113.40;37.72;;;;;;;15.58;62.71;101079.28;5011989;28;20513;-74
2022/12/21 09:01:16;;;;;;;121.55;38.85;;;;;;;15.75;62.37;101084.63;5011158;28;20038;-74
2022/12/21 09:03:41;;;;;;;101.60;34.72;;;;;;;15.97;61.88;101080.00;5013516;28;20029;-74
2022/12/21 09:06:06;;;;;;;108.03;34.42;;;;;;;16.01;61.57;101081.13;5013524;28;20065;-73
2022/12/21 09:08:32;;;;;;;125.35;37.55;;;;;;;15.49;63.65;101086.19;4996348;28;20092;-74
2022/12/21 09:11:12;;;;;;;100.40;35.05;;;;;;;16.01;62.15;101075.72;4995408;28;20042;-74
2022/12/21 09:13:40;;;;;;;102.47;34.65;;;;;;;15.99;61.57;101080.56;5012919;28;20041;-73
2022/12/21 09:16:21;;;;;;;118.07;35.92;;;;;;;15.79;62.59;101092.00;5013173;28;20128;-72
2022/12/21 09:18:47;;;;;;;108.53;34.25;;;;;;;15.45;63.10;101089.69;5013241;28;20458;-73
2022/12/21 09:21:15;;;;;;;107.57;35.72;;;;;;;15.49;64.03;101094.34;5012973;28;20037;-72
2022/12/21 09:23:41;;;;;;;124.60;35.45;;;;;;;15.13;64.76;101084.06;5013542;28;20045;-74
2022/12/21 09:26:07;;;;;;;125.63;38.58;;;;;;;15.68;63.39;101075.88;5012798;28;20042;-72
2022/12/21 09:28:34;;;;;;;117.95;36.67;;;;;;;15.46;63.09;101083.19;5012653;28;20133;-73
2022/12/21 09:31:11;;;;;;;123.80;37.83;;;;;;;14.73;65.89;101086.97;5012668;28;20057;-72
2022/12/21 09:33:38;;;;;;;120.93;35.42;;;;;;;15.16;65.33;101088.97;5012324;28;20041;-72
2022/12/21 09:36:04;;;;;;;118.60;36.55;;;;;;;14.69;66.40;101096.66;5012327;28;20033;-72
2022/12/21 09:38:30;;;;;;;129.07;37.92;;;;;;;15.22;64.76;101097.97;5012583;28;20061;-72
2022/12/21 09:41:01;;;;;;;119.88;36.45;;;;;;;14.51;67.10;101096.06;5012325;28;20695;-73
2022/12/21 09:43:43;;;;;;;115.93;36.15;;;;;;;14.44;67.40;101098.09;5012081;28;20425;-72
2022/12/21 09:46:12;;;;;;;124.07;38.38;;;;;;;14.62;66.86;101092.47;5010428;28;20042;-73
2022/12/21 09:48:50;;;;;;;118.47;35.63;;;;;;;14.78;66.33;101089.75;5012330;28;20053;-73
2022/12/21 09:51:22;;;;;;;130.88;38.47;;;;;;;14.79;65.27;101087.88;5012181;28;20548;-74
2022/12/21 09:54:12;;;;;;;112.10;36.47;;;;;;;14.80;66.57;101078.69;5012743;28;20363;-72
2022/12/21 09:56:41;;;;;;;129.43;39.63;;;;;;;14.32;68.04;101076.53;5012216;28;20046;-73
2022/12/21 09:59:13;;;;;;;125.20;38.00;;;;;;;14.16;68.28;101076.47;5012235;28;20463;-72
2022/12/21 10:02:03;;;;;;;122.20;39.05;;;;;;;14.65;66.62;101064.91;5012047;28;20066;-73
2022/12/21 10:04:57;;;;;;;116.97;40.08;;;;;;;14.97;65.58;101076.78;4992797;28;20073;-72
2022/12/21 10:07:55;;;;;;;133.25;37.85;;;;;;;14.96;65.28;101080.53;4992718;28;20043;-71
2022/12/21 10:10:32;;;;;;;124.43;40.95;;;;;;;14.78;66.41;101078.13;4992552;28;20038;-70
2022/12/21 10:13:27;;;;;;;124.15;38.60;;;;;;;14.70;66.27;101073.94;4996613;28;20422;-70
2022/12/21 10:16:17;;;;;;;131.57;40.90;;;;;;;14.39;66.89;101074.50;4996193;28;20658;-70
2022/12/21 10:19:02;;;;;;;133.77;41.60;;;;;;;14.91;66.37;101081.31;4996696;28;20044;-72
2022/12/21 10:21:33;;;;;;;132.05;40.53;;;;;;;15.33;64.10;101081.63;4996495;28;20085;-71
2022/12/21 10:24:02;;;;;;;112.88;40.15;;;;;;;15.74;62.45;101083.81;4996290;28;20018;-69
2022/12/21 10:26:28;;;;;;;127.50;40.15;;;;;;;15.57;63.18;101083.06;4996579;28;20533;-69
2022/12/21 10:29:06;;;;;;;131.35;40.50;;;;;;;15.37;64.07;101079.25;4995937;28;20031;-70
2022/12/21 10:31:44;;;;;;;121.85;40.10;;;;;;;15.92;61.72;101066.38;4995834;28;20491;-71
2022/12/21 10:34:28;;;;;;;120.10;39.63;;;;;;;16.19;61.30;101066.41;4995974;28;20117;-70
2022/12/21 10:36:59;;;;;;;112.20;40.65;;;;;;;15.62;62.85;101061.47;4978021;28;20128;-71
2022/12/21 10:39:25;;;;;;;108.43;40.22;;;;;;;15.96;61.72;101048.53;4995636;28;20038;-70
2022/12/21 10:42:02;;;;;;;116.85;38.53;;;;;;;16.39;60.10;101043.00;4995510;28;20375;-71
2022/12/21 10:44:27;;;;;;;109.30;38.53;;;;;;;15.63;62.68;101040.59;4995416;28;20141;-70
2022/12/21 10:46:53;;;;;;;118.60;38.47;;;;;;;15.95;61.36;101038.78;4995081;28;20034;-71
2022/12/21 10:49:27;;;;;;;108.43;38.63;;;;;;;15.41;63.32;101039.78;4994534;28;20154;-72
2022/12/21 10:51:53;;;;;;;101.72;35.80;;;;;;;15.07;63.99;101030.94;4994911;28;20038;-71
2022/12/21 10:54:28;;;;;;;102.22;33.35;;;;;;;14.84;65.25;101029.25;4995889;28;20398;-71
2022/12/21 10:56:58;;;;;;;99.22;33.05;;;;;;;15.06;64.45;101026.56;5015198;28;20037;-69
2022/12/21 10:59:29;;;;;;;99.95;31.00;;;;;;;15.39;62.56;101026.47;5014819;28;20103;-71
2022/12/21 11:01:54;;;;;;;98.80;32.33;;;;;;;14.93;63.99;101038.59;5014841;28;20088;-71
2022/12/21 11:04:23;;;;;;;102.47;35.08;;;;;;;15.15;63.98;101026.97;5014677;28;20057;-71
2022/12/21 11:06:57;;;;;;;99.93;32.67;;;;;;;14.90;64.51;101030.13;5015029;28;20077;-71
2022/12/21 11:09:33;;;;;;;77.10;31.23;;;;;;;15.38;63.23;101027.53;5015627;28;20447;-71
2022/12/21 11:12:24;;;;;;;86.13;34.15;;;;;;;15.65;61.61;101025.72;5016281;28;20041;-70
2022/12/21 11:14:52;;;;;;;84.05;31.42;;;;;;;14.90;63.72;101030.13;5032134;28;20528;-73
2022/12/21 11:17:22;;;;;;;68.47;27.70;;;;;;;14.57;64.76;101022.88;5013665;28;20038;-72
2022/12/21 11:19:51;;;;;;;75.13;30.17;;;;;;;15.55;62.31;101022.91;5013972;28;20112;-71
2022/12/21 11:22:24;;;;;;;75.63;30.60;;;;;;;15.32;62.29;101019.59;5013123;28;20065;-71
2022/12/21 11:24:52;;;;;;;89.65;32.78;;;;;;;15.08;63.73;101026.31;4995911;28;20033;-70
2022/12/21 11:27:25;;;;;;;78.60;32.95;;;;;;;15.41;62.54;101016.19;5013671;28;20038;-72